This is the latest recevied weather packets stored in our database for station/object SP1BMW-13. If no packets are shown the sender has not sent any weather packets the latest 10 day(s).
| Time | Temp. | Humidity | Pressure | Rain* | Wind** | Luminosity | Snow |
|---|---|---|---|---|---|---|---|
| 1788075219 | 22.78° C | 64% | 1008.1 hPa | 0 mm | 0.45 m/s, 247° | 295 W/m² | - |
| 1788075157 | 22.78° C | 62% | 1008.2 hPa | 0 mm | 0.45 m/s, 59° | 294 W/m² | - |
| 1788075099 | 22.22° C | 61% | 1008.1 hPa | 0 mm | 0.45 m/s, 339° | 292 W/m² | - |
| 1788075036 | 22.22° C | 61% | 1008.3 hPa | 0 mm | 0 m/s | 293 W/m² | - |
| 1788074976 | 22.22° C | 62% | 1008.2 hPa | 0 mm | 0.89 m/s, 106° | 295 W/m² | - |
| 1788074917 | 22.22° C | 62% | 1008.3 hPa | 0 mm | 0.45 m/s, 332° | 268 W/m² | - |
| 1788074856 | 22.78° C | 61% | 1008.3 hPa | 0 mm | 1.34 m/s, 234° | 151 W/m² | - |
| 1788074799 | 22.78° C | 61% | 1008.2 hPa | 0 mm | 1.79 m/s, 153° | 290 W/m² | - |
| 1788074737 | 22.78° C | 61% | 1008.3 hPa | 0 mm | 0.89 m/s, 170° | 135 W/m² | - |
| 1788074676 | 22.78° C | 61% | 1008.1 hPa | 0 mm | 1.34 m/s, 103° | 179 W/m² | - |
| 1788074617 | 22.78° C | 61% | 1008.3 hPa | 0 mm | 0 m/s | 286 W/m² | - |
| 1788074556 | 22.78° C | 61% | 1008.1 hPa | 0 mm | 0.45 m/s, 187° | 287 W/m² | - |
| 1788074496 | 22.78° C | 61% | 1008.4 hPa | 0 mm | 0 m/s | 208 W/m² | - |
| 1788074437 | 22.78° C | 61% | 1008.2 hPa | 0 mm | 0.45 m/s, 56° | 203 W/m² | - |
| 1788074379 | 22.78° C | 61% | 1008.3 hPa | 0 mm | 1.34 m/s, 228° | 263 W/m² | - |
| 1788074317 | 22.22° C | 62% | 1008.1 hPa | 0 mm | 0.45 m/s, 59° | 281 W/m² | - |
| 1788074259 | 22.78° C | 62% | 1008.1 hPa | 0 mm | 0 m/s | 221 W/m² | - |
| 1788074196 | 22.78° C | 61% | 1008.2 hPa | 0 mm | 0.45 m/s, 245° | 234 W/m² | - |
| 1788074137 | 22.78° C | 61% | 1008.3 hPa | 0 mm | 0 m/s | 158 W/m² | - |
| 1788074079 | 22.78° C | 60% | 1008.3 hPa | 0 mm | 1.34 m/s, 236° | 134 W/m² | - |
| 1788074016 | 22.78° C | 60% | 1008.2 hPa | 0 mm | 0.89 m/s, 339° | 137 W/m² | - |
| 1788073957 | 22.78° C | 59% | 1008.2 hPa | 0 mm | 3.58 m/s, 147° | 151 W/m² | - |
| 1788073897 | 22.78° C | 61% | 1008.3 hPa | 0 mm | 0.45 m/s, 62° | 171 W/m² | - |
| 1788073836 | 22.78° C | 60% | 1008.1 hPa | 0 mm | 0 m/s | 179 W/m² | - |
| 1788073779 | 22.78° C | 60% | 1008 hPa | 0 mm | 0.45 m/s, 237° | 355 W/m² | - |
* Rain latest hour (hover to see other rain measurements)
** Current wind speed in m/s (hover to see current wind gust speed)